sensor_id;sensor_type;location;lat;lon;timestamp;temperature;humidity
56869;DHT22;42754;0.000;0.000;2022-12-18T00:00:47;-3.20;99.90
56869;DHT22;42754;0.000;0.000;2022-12-18T00:03:13;-3.30;99.90
56869;DHT22;42754;0.000;0.000;2022-12-18T00:05:46;-3.20;99.90
56869;DHT22;42754;0.000;0.000;2022-12-18T00:08:11;-3.20;99.90
56869;DHT22;42754;0.000;0.000;2022-12-18T00:10:37;-3.20;99.90
56869;DHT22;42754;0.000;0.000;2022-12-18T00:13:02;-3.30;99.90
56869;DHT22;42754;0.000;0.000;2022-12-18T00:15:28;-3.30;99.90
56869;DHT22;42754;0.000;0.000;2022-12-18T00:17:54;-3.40;99.90
56869;DHT22;42754;0.000;0.000;2022-12-18T00:20:20;-3.50;99.90
56869;DHT22;42754;0.000;0.000;2022-12-18T00:22:51;-3.60;99.90
56869;DHT22;42754;0.000;0.000;2022-12-18T00:25:17;-3.70;99.90
56869;DHT22;42754;0.000;0.000;2022-12-18T00:27:42;-3.70;99.90
56869;DHT22;42754;0.000;0.000;2022-12-18T00:30:08;-3.70;99.90
56869;DHT22;42754;0.000;0.000;2022-12-18T00:32:34;-3.70;99.90
56869;DHT22;42754;0.000;0.000;2022-12-18T00:34:59;-3.70;99.90
56869;DHT22;42754;0.000;0.000;2022-12-18T00:37:25;-3.70;99.90
56869;DHT22;42754;0.000;0.000;2022-12-18T00:39:50;-3.70;99.90
56869;DHT22;42754;0.000;0.000;2022-12-18T00:42:16;-3.80;99.90
56869;DHT22;42754;0.000;0.000;2022-12-18T00:45:00;-3.80;99.90
56869;DHT22;42754;0.000;0.000;2022-12-18T00:47:25;-3.90;99.90
56869;DHT22;42754;0.000;0.000;2022-12-18T00:49:51;-4.00;99.90
56869;DHT22;42754;0.000;0.000;2022-12-18T00:52:17;-4.10;99.90
56869;DHT22;42754;0.000;0.000;2022-12-18T00:54:42;-4.20;99.90
56869;DHT22;42754;0.000;0.000;2022-12-18T00:57:08;-4.20;99.90
56869;DHT22;42754;0.000;0.000;2022-12-18T00:59:33;-4.20;99.90
56869;DHT22;42754;0.000;0.000;2022-12-18T01:01:59;-4.20;99.90
56869;DHT22;42754;0.000;0.000;2022-12-18T01:04:24;-4.20;99.90
56869;DHT22;42754;0.000;0.000;2022-12-18T01:06:50;-4.10;99.90
56869;DHT22;42754;0.000;0.000;2022-12-18T01:09:16;-4.10;99.90
56869;DHT22;42754;0.000;0.000;2022-12-18T01:11:41;-4.00;99.90
56869;DHT22;42754;0.000;0.000;2022-12-18T01:14:07;-4.00;99.90
56869;DHT22;42754;0.000;0.000;2022-12-18T01:16:32;-4.10;99.90
56869;DHT22;42754;0.000;0.000;2022-12-18T01:18:59;-4.00;99.90
56869;DHT22;42754;0.000;0.000;2022-12-18T01:21:25;-4.10;99.90
56869;DHT22;42754;0.000;0.000;2022-12-18T01:23:51;-4.00;99.90
56869;DHT22;42754;0.000;0.000;2022-12-18T01:26:17;-4.00;99.90
56869;DHT22;42754;0.000;0.000;2022-12-18T01:28:43;-4.10;99.90
56869;DHT22;42754;0.000;0.000;2022-12-18T01:31:10;-4.10;99.90
56869;DHT22;42754;0.000;0.000;2022-12-18T01:33:35;-4.10;99.90
56869;DHT22;42754;0.000;0.000;2022-12-18T01:36:01;-4.20;99.90
56869;DHT22;42754;0.000;0.000;2022-12-18T01:38:28;-4.10;99.90
56869;DHT22;42754;0.000;0.000;2022-12-18T01:41:00;-4.20;99.90
56869;DHT22;42754;0.000;0.000;2022-12-18T01:43:42;-4.10;99.90
56869;DHT22;42754;0.000;0.000;2022-12-18T01:46:08;-4.20;99.90
56869;DHT22;42754;0.000;0.000;2022-12-18T01:48:34;-4.20;99.90
56869;DHT22;42754;0.000;0.000;2022-12-18T01:51:00;-4.20;99.90
56869;DHT22;42754;0.000;0.000;2022-12-18T01:53:26;-4.20;99.90
56869;DHT22;42754;0.000;0.000;2022-12-18T01:55:55;-4.40;99.90
56869;DHT22;42754;0.000;0.000;2022-12-18T01:58:23;-4.50;99.90
56869;DHT22;42754;0.000;0.000;2022-12-18T02:00:49;-4.40;99.90
56869;DHT22;42754;0.000;0.000;2022-12-18T02:03:15;-4.50;99.90
56869;DHT22;42754;0.000;0.000;2022-12-18T02:13:15;-4.60;99.90
56869;DHT22;42754;0.000;0.000;2022-12-18T02:15:51;-4.60;99.90
56869;DHT22;42754;0.000;0.000;2022-12-18T02:18:27;-4.70;99.90
56869;DHT22;42754;0.000;0.000;2022-12-18T02:26:11;-4.50;99.90
56869;DHT22;42754;0.000;0.000;2022-12-18T02:29:02;-4.60;99.90
56869;DHT22;42754;0.000;0.000;2022-12-18T02:31:28;-4.60;99.90
56869;DHT22;42754;0.000;0.000;2022-12-18T02:34:00;-4.50;99.90
56869;DHT22;42754;0.000;0.000;2022-12-18T02:36:27;-4.60;99.90
56869;DHT22;42754;0.000;0.000;2022-12-18T02:38:53;-4.60;99.90
56869;DHT22;42754;0.000;0.000;2022-12-18T02:41:20;-4.80;99.90
56869;DHT22;42754;0.000;0.000;2022-12-18T02:43:52;-4.80;99.90
56869;DHT22;42754;0.000;0.000;2022-12-18T02:46:32;-4.80;99.90
56869;DHT22;42754;0.000;0.000;2022-12-18T02:49:04;-4.80;99.90
56869;DHT22;42754;0.000;0.000;2022-12-18T02:54:33;-4.80;99.90
56869;DHT22;42754;0.000;0.000;2022-12-18T02:57:05;-4.80;99.90
56869;DHT22;42754;0.000;0.000;2022-12-18T02:59:46;-4.90;99.90
56869;DHT22;42754;0.000;0.000;2022-12-18T03:07:21;-5.00;99.90
56869;DHT22;42754;0.000;0.000;2022-12-18T03:09:49;-5.00;99.90
56869;DHT22;42754;0.000;0.000;2022-12-18T03:14:52;-5.00;99.90
56869;DHT22;42754;0.000;0.000;2022-12-18T03:17:19;-5.00;99.90
56869;DHT22;42754;0.000;0.000;2022-12-18T03:19:45;-4.90;99.90
56869;DHT22;42754;0.000;0.000;2022-12-18T03:22:11;-4.90;99.90
56869;DHT22;42754;0.000;0.000;2022-12-18T03:24:38;-4.90;99.90
56869;DHT22;42754;0.000;0.000;2022-12-18T03:27:06;-4.90;99.90
56869;DHT22;42754;0.000;0.000;2022-12-18T03:29:40;-5.00;99.90
56869;DHT22;42754;0.000;0.000;2022-12-18T03:32:10;-5.00;99.90
56869;DHT22;42754;0.000;0.000;2022-12-18T03:34:37;-5.00;99.90
56869;DHT22;42754;0.000;0.000;2022-12-18T03:37:04;-5.00;99.90
56869;DHT22;42754;0.000;0.000;2022-12-18T03:39:30;-5.10;99.90
56869;DHT22;42754;0.000;0.000;2022-12-18T03:42:06;-5.10;99.90
56869;DHT22;42754;0.000;0.000;2022-12-18T03:47:10;-5.10;99.90
56869;DHT22;42754;0.000;0.000;2022-12-18T03:49:39;-5.20;99.90
56869;DHT22;42754;0.000;0.000;2022-12-18T03:54:33;-5.10;99.90
56869;DHT22;42754;0.000;0.000;2022-12-18T03:57:04;-5.10;99.90
56869;DHT22;42754;0.000;0.000;2022-12-18T03:59:30;-5.10;99.90
56869;DHT22;42754;0.000;0.000;2022-12-18T04:01:56;-5.20;99.90
56869;DHT22;42754;0.000;0.000;2022-12-18T04:04:24;-5.20;99.90
56869;DHT22;42754;0.000;0.000;2022-12-18T04:06:50;-5.20;99.90
56869;DHT22;42754;0.000;0.000;2022-12-18T04:09:16;-5.20;99.90
56869;DHT22;42754;0.000;0.000;2022-12-18T04:11:41;-5.20;99.90
56869;DHT22;42754;0.000;0.000;2022-12-18T04:14:09;-5.20;99.90
56869;DHT22;42754;0.000;0.000;2022-12-18T04:16:34;-5.20;99.90
56869;DHT22;42754;0.000;0.000;2022-12-18T04:19:01;-5.20;99.90
56869;DHT22;42754;0.000;0.000;2022-12-18T04:21:26;-5.20;99.90
56869;DHT22;42754;0.000;0.000;2022-12-18T04:23:52;-5.20;99.90
56869;DHT22;42754;0.000;0.000;2022-12-18T04:26:18;-5.20;99.90
56869;DHT22;42754;0.000;0.000;2022-12-18T04:28:43;-5.20;99.90
56869;DHT22;42754;0.000;0.000;2022-12-18T04:31:09;-5.10;99.90
56869;DHT22;42754;0.000;0.000;2022-12-18T04:33:34;-5.10;99.90
56869;DHT22;42754;0.000;0.000;2022-12-18T04:36:00;-5.20;99.90
56869;DHT22;42754;0.000;0.000;2022-12-18T04:38:25;-5.20;99.90
56869;DHT22;42754;0.000;0.000;2022-12-18T04:40:51;-5.20;99.90
56869;DHT22;42754;0.000;0.000;2022-12-18T04:43:16;-5.20;99.90
56869;DHT22;42754;0.000;0.000;2022-12-18T04:45:42;-5.30;99.90
56869;DHT22;42754;0.000;0.000;2022-12-18T04:48:07;-5.30;99.90
56869;DHT22;42754;0.000;0.000;2022-12-18T04:50:33;-5.30;99.90
56869;DHT22;42754;0.000;0.000;2022-12-18T04:52:59;-5.40;99.90
56869;DHT22;42754;0.000;0.000;2022-12-18T04:55:24;-5.40;99.90
56869;DHT22;42754;0.000;0.000;2022-12-18T04:57:50;-5.50;99.90
56869;DHT22;42754;0.000;0.000;2022-12-18T05:00:16;-5.50;99.90
56869;DHT22;42754;0.000;0.000;2022-12-18T05:02:41;-5.50;99.90
56869;DHT22;42754;0.000;0.000;2022-12-18T05:05:07;-5.50;99.90
56869;DHT22;42754;0.000;0.000;2022-12-18T05:07:33;-5.50;99.90
56869;DHT22;42754;0.000;0.000;2022-12-18T05:09:58;-5.50;99.90
56869;DHT22;42754;0.000;0.000;2022-12-18T05:12:24;-5.50;99.90
56869;DHT22;42754;0.000;0.000;2022-12-18T05:14:50;-5.50;99.90
56869;DHT22;42754;0.000;0.000;2022-12-18T05:17:15;-5.40;99.90
56869;DHT22;42754;0.000;0.000;2022-12-18T05:19:41;-5.50;99.90
56869;DHT22;42754;0.000;0.000;2022-12-18T05:22:06;-5.60;99.90
56869;DHT22;42754;0.000;0.000;2022-12-18T05:24:32;-5.60;99.90
56869;DHT22;42754;0.000;0.000;2022-12-18T05:26:58;-5.60;99.90
56869;DHT22;42754;0.000;0.000;2022-12-18T05:29:23;-5.60;99.90
56869;DHT22;42754;0.000;0.000;2022-12-18T05:31:49;-5.60;99.90
56869;DHT22;42754;0.000;0.000;2022-12-18T05:34:14;-5.60;99.90
56869;DHT22;42754;0.000;0.000;2022-12-18T05:36:40;-5.60;99.90
56869;DHT22;42754;0.000;0.000;2022-12-18T05:39:06;-5.70;99.90
56869;DHT22;42754;0.000;0.000;2022-12-18T05:41:32;-5.70;99.90
56869;DHT22;42754;0.000;0.000;2022-12-18T05:43:58;-5.80;99.90
56869;DHT22;42754;0.000;0.000;2022-12-18T05:46:23;-5.80;99.90
56869;DHT22;42754;0.000;0.000;2022-12-18T05:48:49;-5.80;99.90
56869;DHT22;42754;0.000;0.000;2022-12-18T05:51:16;-5.80;99.90
56869;DHT22;42754;0.000;0.000;2022-12-18T05:53:42;-5.80;99.90
56869;DHT22;42754;0.000;0.000;2022-12-18T05:56:09;-5.80;99.90
56869;DHT22;42754;0.000;0.000;2022-12-18T05:58:35;-5.70;99.90
56869;DHT22;42754;0.000;0.000;2022-12-18T06:01:08;-5.80;99.90
56869;DHT22;42754;0.000;0.000;2022-12-18T06:03:34;-5.70;99.90
56869;DHT22;42754;0.000;0.000;2022-12-18T06:06:00;-5.80;99.90
56869;DHT22;42754;0.000;0.000;2022-12-18T06:08:26;-5.80;99.90
56869;DHT22;42754;0.000;0.000;2022-12-18T06:10:51;-5.70;99.90
56869;DHT22;42754;0.000;0.000;2022-12-18T06:13:20;-5.80;99.90
56869;DHT22;42754;0.000;0.000;2022-12-18T06:15:46;-5.80;99.90
56869;DHT22;42754;0.000;0.000;2022-12-18T06:18:12;-5.80;99.90
56869;DHT22;42754;0.000;0.000;2022-12-18T06:20:37;-5.80;99.90
56869;DHT22;42754;0.000;0.000;2022-12-18T06:23:05;-5.80;99.90
56869;DHT22;42754;0.000;0.000;2022-12-18T06:25:31;-5.80;99.90
56869;DHT22;42754;0.000;0.000;2022-12-18T06:27:57;-5.80;99.90
56869;DHT22;42754;0.000;0.000;2022-12-18T06:30:23;-5.80;99.90
56869;DHT22;42754;0.000;0.000;2022-12-18T06:32:48;-5.80;99.90
56869;DHT22;42754;0.000;0.000;2022-12-18T06:35:14;-5.80;99.90
56869;DHT22;42754;0.000;0.000;2022-12-18T06:37:40;-5.80;99.90
56869;DHT22;42754;0.000;0.000;2022-12-18T06:40:06;-5.70;99.90
56869;DHT22;42754;0.000;0.000;2022-12-18T06:42:32;-5.70;99.90
56869;DHT22;42754;0.000;0.000;2022-12-18T06:44:57;-5.70;99.90
56869;DHT22;42754;0.000;0.000;2022-12-18T06:47:23;-5.70;99.90
56869;DHT22;42754;0.000;0.000;2022-12-18T06:49:48;-5.80;99.90
56869;DHT22;42754;0.000;0.000;2022-12-18T06:52:14;-5.80;99.90
56869;DHT22;42754;0.000;0.000;2022-12-18T06:54:39;-5.80;99.90
56869;DHT22;42754;0.000;0.000;2022-12-18T06:57:05;-5.90;99.90
56869;DHT22;42754;0.000;0.000;2022-12-18T06:59:31;-5.80;99.90
56869;DHT22;42754;0.000;0.000;2022-12-18T07:01:56;-5.80;99.90
56869;DHT22;42754;0.000;0.000;2022-12-18T07:04:22;-5.80;99.90
56869;DHT22;42754;0.000;0.000;2022-12-18T07:06:47;-5.90;99.90
56869;DHT22;42754;0.000;0.000;2022-12-18T07:09:13;-5.90;99.90
56869;DHT22;42754;0.000;0.000;2022-12-18T07:11:38;-5.90;99.90
56869;DHT22;42754;0.000;0.000;2022-12-18T07:14:04;-5.90;99.90
56869;DHT22;42754;0.000;0.000;2022-12-18T07:16:30;-5.90;99.90
56869;DHT22;42754;0.000;0.000;2022-12-18T07:18:55;-5.80;99.90
56869;DHT22;42754;0.000;0.000;2022-12-18T07:21:21;-5.80;99.90
56869;DHT22;42754;0.000;0.000;2022-12-18T07:23:47;-5.80;99.90
56869;DHT22;42754;0.000;0.000;2022-12-18T07:26:14;-5.80;99.90
56869;DHT22;42754;0.000;0.000;2022-12-18T07:28:40;-5.80;99.90
56869;DHT22;42754;0.000;0.000;2022-12-18T07:31:06;-5.80;99.90
56869;DHT22;42754;0.000;0.000;2022-12-18T07:33:32;-5.80;99.90
56869;DHT22;42754;0.000;0.000;2022-12-18T07:35:59;-5.80;99.90
56869;DHT22;42754;0.000;0.000;2022-12-18T07:38:24;-5.80;99.90
56869;DHT22;42754;0.000;0.000;2022-12-18T07:40:50;-5.80;99.90
56869;DHT22;42754;0.000;0.000;2022-12-18T07:43:15;-5.70;99.90
56869;DHT22;42754;0.000;0.000;2022-12-18T07:45:42;-5.70;99.90
56869;DHT22;42754;0.000;0.000;2022-12-18T07:48:07;-5.70;99.90
56869;DHT22;42754;0.000;0.000;2022-12-18T07:50:33;-5.70;99.90
56869;DHT22;42754;0.000;0.000;2022-12-18T07:52:59;-5.70;99.90
56869;DHT22;42754;0.000;0.000;2022-12-18T07:55:29;-5.70;99.90
56869;DHT22;42754;0.000;0.000;2022-12-18T07:57:54;-5.70;99.90
56869;DHT22;42754;0.000;0.000;2022-12-18T08:00:20;-5.60;99.90
56869;DHT22;42754;0.000;0.000;2022-12-18T08:02:46;-5.60;99.90
56869;DHT22;42754;0.000;0.000;2022-12-18T08:05:11;-5.60;99.90
56869;DHT22;42754;0.000;0.000;2022-12-18T08:07:37;-5.60;99.90
56869;DHT22;42754;0.000;0.000;2022-12-18T08:10:03;-5.50;99.90
56869;DHT22;42754;0.000;0.000;2022-12-18T08:12:28;-5.20;99.90
56869;DHT22;42754;0.000;0.000;2022-12-18T08:14:55;-4.90;99.90
56869;DHT22;42754;0.000;0.000;2022-12-18T08:17:21;-4.80;99.90
56869;DHT22;42754;0.000;0.000;2022-12-18T08:19:46;-4.70;99.90
56869;DHT22;42754;0.000;0.000;2022-12-18T08:22:12;-4.70;99.90
56869;DHT22;42754;0.000;0.000;2022-12-18T08:24:37;-4.50;99.90
56869;DHT22;42754;0.000;0.000;2022-12-18T08:27:03;-4.40;99.90
56869;DHT22;42754;0.000;0.000;2022-12-18T08:29:28;-4.10;99.90
56869;DHT22;42754;0.000;0.000;2022-12-18T08:31:55;-4.20;99.90
56869;DHT22;42754;0.000;0.000;2022-12-18T08:34:21;-4.30;99.90
56869;DHT22;42754;0.000;0.000;2022-12-18T08:36:46;-4.20;99.90
56869;DHT22;42754;0.000;0.000;2022-12-18T08:39:12;-4.10;99.90
56869;DHT22;42754;0.000;0.000;2022-12-18T08:41:37;-4.00;99.90
56869;DHT22;42754;0.000;0.000;2022-12-18T08:44:03;-3.80;99.90
56869;DHT22;42754;0.000;0.000;2022-12-18T08:46:47;-3.70;99.90
56869;DHT22;42754;0.000;0.000;2022-12-18T08:49:13;-3.60;99.90
56869;DHT22;42754;0.000;0.000;2022-12-18T08:51:39;-3.50;99.90
56869;DHT22;42754;0.000;0.000;2022-12-18T08:54:05;-3.40;99.90
56869;DHT22;42754;0.000;0.000;2022-12-18T08:56:31;-3.40;99.90
56869;DHT22;42754;0.000;0.000;2022-12-18T08:58:57;-3.30;99.90
56869;DHT22;42754;0.000;0.000;2022-12-18T09:01:23;-3.20;99.90
56869;DHT22;42754;0.000;0.000;2022-12-18T09:03:49;-3.00;99.90
56869;DHT22;42754;0.000;0.000;2022-12-18T09:06:15;-3.00;99.90
56869;DHT22;42754;0.000;0.000;2022-12-18T09:08:42;-3.00;99.90
56869;DHT22;42754;0.000;0.000;2022-12-18T09:11:12;-2.60;99.90
56869;DHT22;42754;0.000;0.000;2022-12-18T09:13:38;-2.00;99.90
56869;DHT22;42754;0.000;0.000;2022-12-18T09:16:04;-0.60;99.90
56869;DHT22;42754;0.000;0.000;2022-12-18T09:18:29;0.40;99.90
56869;DHT22;42754;0.000;0.000;2022-12-18T09:20:55;0.10;99.90
56869;DHT22;42754;0.000;0.000;2022-12-18T09:23:21;-0.40;99.90
56869;DHT22;42754;0.000;0.000;2022-12-18T09:25:46;-0.80;99.90
56869;DHT22;42754;0.000;0.000;2022-12-18T09:28:13;-1.20;99.90
56869;DHT22;42754;0.000;0.000;2022-12-18T09:30:40;-1.60;99.90
56869;DHT22;42754;0.000;0.000;2022-12-18T09:33:06;-1.90;99.90
56869;DHT22;42754;0.000;0.000;2022-12-18T09:35:32;-2.00;99.90
56869;DHT22;42754;0.000;0.000;2022-12-18T09:37:58;-2.10;99.90
56869;DHT22;42754;0.000;0.000;2022-12-18T09:40:25;-2.00;99.90
56869;DHT22;42754;0.000;0.000;2022-12-18T09:42:56;-2.10;99.90
56869;DHT22;42754;0.000;0.000;2022-12-18T09:45:22;-2.20;99.90
56869;DHT22;42754;0.000;0.000;2022-12-18T09:47:49;-2.20;99.90
56869;DHT22;42754;0.000;0.000;2022-12-18T09:50:24;-2.10;99.90
56869;DHT22;42754;0.000;0.000;2022-12-18T09:52:53;-2.10;99.90
56869;DHT22;42754;0.000;0.000;2022-12-18T09:58:06;-2.20;99.90
56869;DHT22;42754;0.000;0.000;2022-12-18T10:00:35;-2.10;99.90
56869;DHT22;42754;0.000;0.000;2022-12-18T10:03:03;-2.10;99.90
56869;DHT22;42754;0.000;0.000;2022-12-18T10:05:36;-2.10;99.90
56869;DHT22;42754;0.000;0.000;2022-12-18T10:08:11;-2.10;99.90
56869;DHT22;42754;0.000;0.000;2022-12-18T10:13:21;-2.10;99.90
56869;DHT22;42754;0.000;0.000;2022-12-18T10:16:03;-2.00;99.90
56869;DHT22;42754;0.000;0.000;2022-12-18T10:18:45;-2.00;99.90
56869;DHT22;42754;0.000;0.000;2022-12-18T10:21:16;-2.00;99.90
56869;DHT22;42754;0.000;0.000;2022-12-18T10:26:28;-1.90;99.90
56869;DHT22;42754;0.000;0.000;2022-12-18T10:28:59;-1.90;99.90
56869;DHT22;42754;0.000;0.000;2022-12-18T10:31:25;-1.80;99.90
56869;DHT22;42754;0.000;0.000;2022-12-18T10:33:51;-1.80;99.90
56869;DHT22;42754;0.000;0.000;2022-12-18T10:36:18;-1.70;99.90
56869;DHT22;42754;0.000;0.000;2022-12-18T10:38:45;-1.70;99.90
56869;DHT22;42754;0.000;0.000;2022-12-18T10:43:42;-1.60;99.90
56869;DHT22;42754;0.000;0.000;2022-12-18T10:48:35;-1.60;99.90
56869;DHT22;42754;0.000;0.000;2022-12-18T10:51:01;-1.60;99.90
56869;DHT22;42754;0.000;0.000;2022-12-18T10:53:28;-1.60;99.90
56869;DHT22;42754;0.000;0.000;2022-12-18T10:55:56;-1.60;99.90
56869;DHT22;42754;0.000;0.000;2022-12-18T10:58:33;-1.50;99.90
56869;DHT22;42754;0.000;0.000;2022-12-18T11:01:16;-1.50;99.90
56869;DHT22;42754;0.000;0.000;2022-12-18T11:06:08;-1.50;99.90
56869;DHT22;42754;0.000;0.000;2022-12-18T11:08:34;-1.50;99.90
56869;DHT22;42754;0.000;0.000;2022-12-18T11:11:00;-1.50;99.90
56869;DHT22;42754;0.000;0.000;2022-12-18T11:13:26;-1.50;99.90
56869;DHT22;42754;0.000;0.000;2022-12-18T11:15:53;-1.40;99.90
56869;DHT22;42754;0.000;0.000;2022-12-18T11:18:20;-1.40;99.90
56869;DHT22;42754;0.000;0.000;2022-12-18T11:20:51;-1.40;99.90
56869;DHT22;42754;0.000;0.000;2022-12-18T11:23:18;-1.40;99.90
56869;DHT22;42754;0.000;0.000;2022-12-18T11:25:50;-1.30;99.90
56869;DHT22;42754;0.000;0.000;2022-12-18T11:33:47;-1.30;99.90
56869;DHT22;42754;0.000;0.000;2022-12-18T11:36:15;-1.30;99.90
56869;DHT22;42754;0.000;0.000;2022-12-18T11:38:42;-1.20;99.90
56869;DHT22;42754;0.000;0.000;2022-12-18T11:49:23;-1.20;99.90
56869;DHT22;42754;0.000;0.000;2022-12-18T11:51:51;-1.10;99.90
56869;DHT22;42754;0.000;0.000;2022-12-18T11:54:19;-1.10;99.90
56869;DHT22;42754;0.000;0.000;2022-12-18T11:56:53;-1.10;99.90
56869;DHT22;42754;0.000;0.000;2022-12-18T12:01:59;-1.00;99.90
56869;DHT22;42754;0.000;0.000;2022-12-18T12:04:40;-1.00;99.90
56869;DHT22;42754;0.000;0.000;2022-12-18T12:12:42;-0.80;99.90
56869;DHT22;42754;0.000;0.000;2022-12-18T12:15:13;-0.80;99.90
56869;DHT22;42754;0.000;0.000;2022-12-18T12:22:57;-0.70;99.90
56869;DHT22;42754;0.000;0.000;2022-12-18T12:25:33;-0.70;99.90
56869;DHT22;42754;0.000;0.000;2022-12-18T12:38:16;-0.60;99.90
56869;DHT22;42754;0.000;0.000;2022-12-18T12:40:44;-0.60;99.90
56869;DHT22;42754;0.000;0.000;2022-12-18T12:45:44;-0.60;99.90
56869;DHT22;42754;0.000;0.000;2022-12-18T12:48:28;-0.60;99.90
56869;DHT22;42754;0.000;0.000;2022-12-18T12:50:58;-0.60;99.90
56869;DHT22;42754;0.000;0.000;2022-12-18T12:53:29;-0.60;99.90
56869;DHT22;42754;0.000;0.000;2022-12-18T12:55:56;-0.60;99.90
56869;DHT22;42754;0.000;0.000;2022-12-18T12:58:33;-0.60;99.90
56869;DHT22;42754;0.000;0.000;2022-12-18T13:03:48;-0.50;99.90
56869;DHT22;42754;0.000;0.000;2022-12-18T13:06:33;-0.60;99.90
56869;DHT22;42754;0.000;0.000;2022-12-18T13:09:01;-0.50;99.90
56869;DHT22;42754;0.000;0.000;2022-12-18T13:11:37;-0.50;99.90
56869;DHT22;42754;0.000;0.000;2022-12-18T13:14:26;-0.50;99.90
56869;DHT22;42754;0.000;0.000;2022-12-18T13:17:13;-0.50;99.90
56869;DHT22;42754;0.000;0.000;2022-12-18T13:19:39;-0.50;99.90
56869;DHT22;42754;0.000;0.000;2022-12-18T13:22:12;-0.50;99.90
56869;DHT22;42754;0.000;0.000;2022-12-18T13:24:45;-0.50;99.90
56869;DHT22;42754;0.000;0.000;2022-12-18T13:29:55;-0.50;99.90
56869;DHT22;42754;0.000;0.000;2022-12-18T13:32:24;-0.50;99.90
56869;DHT22;42754;0.000;0.000;2022-12-18T13:37:41;-0.50;99.90
56869;DHT22;42754;0.000;0.000;2022-12-18T13:42:51;-0.50;99.90
56869;DHT22;42754;0.000;0.000;2022-12-18T13:45:37;-0.50;99.90
56869;DHT22;42754;0.000;0.000;2022-12-18T13:48:03;-0.50;99.90
56869;DHT22;42754;0.000;0.000;2022-12-18T13:50:29;-0.50;99.90
56869;DHT22;42754;0.000;0.000;2022-12-18T13:52:54;-0.40;99.90
56869;DHT22;42754;0.000;0.000;2022-12-18T13:55:20;-0.50;99.90
56869;DHT22;42754;0.000;0.000;2022-12-18T13:57:47;-0.40;99.90
56869;DHT22;42754;0.000;0.000;2022-12-18T14:02:48;-0.50;99.90
56869;DHT22;42754;0.000;0.000;2022-12-18T14:05:23;-0.50;99.90
56869;DHT22;42754;0.000;0.000;2022-12-18T14:07:49;-0.50;99.90
56869;DHT22;42754;0.000;0.000;2022-12-18T14:10:15;-0.50;99.90
56869;DHT22;42754;0.000;0.000;2022-12-18T14:12:44;-0.50;99.90
56869;DHT22;42754;0.000;0.000;2022-12-18T14:17:59;-0.50;99.90
56869;DHT22;42754;0.000;0.000;2022-12-18T14:20:25;-0.50;99.90
56869;DHT22;42754;0.000;0.000;2022-12-18T14:22:51;-0.50;99.90
56869;DHT22;42754;0.000;0.000;2022-12-18T14:25:23;-0.50;99.90
56869;DHT22;42754;0.000;0.000;2022-12-18T14:27:51;-0.50;99.90
56869;DHT22;42754;0.000;0.000;2022-12-18T14:30:23;-0.50;99.90
56869;DHT22;42754;0.000;0.000;2022-12-18T14:40:56;-0.50;99.90
56869;DHT22;42754;0.000;0.000;2022-12-18T14:43:22;-0.50;99.90
56869;DHT22;42754;0.000;0.000;2022-12-18T14:45:48;-0.50;99.90
56869;DHT22;42754;0.000;0.000;2022-12-18T14:48:19;-0.50;99.90
56869;DHT22;42754;0.000;0.000;2022-12-18T14:50:45;-0.50;99.90
56869;DHT22;42754;0.000;0.000;2022-12-18T14:53:28;-0.50;99.90
56869;DHT22;42754;0.000;0.000;2022-12-18T14:55:56;-0.50;99.90
56869;DHT22;42754;0.000;0.000;2022-12-18T14:58:22;-0.50;99.90
56869;DHT22;42754;0.000;0.000;2022-12-18T15:00:49;-0.50;99.90
56869;DHT22;42754;0.000;0.000;2022-12-18T15:03:17;-0.50;99.90
56869;DHT22;42754;0.000;0.000;2022-12-18T15:05:44;-0.40;99.90
56869;DHT22;42754;0.000;0.000;2022-12-18T15:08:29;-0.40;99.90
56869;DHT22;42754;0.000;0.000;2022-12-18T15:10:55;-0.40;99.90
56869;DHT22;42754;0.000;0.000;2022-12-18T15:13:22;-0.50;99.90
56869;DHT22;42754;0.000;0.000;2022-12-18T15:15:48;-0.40;99.90
56869;DHT22;42754;0.000;0.000;2022-12-18T15:18:15;-0.50;99.90
56869;DHT22;42754;0.000;0.000;2022-12-18T15:23:21;-0.50;99.90
56869;DHT22;42754;0.000;0.000;2022-12-18T15:25:56;-0.40;99.90
56869;DHT22;42754;0.000;0.000;2022-12-18T15:30:58;-0.50;99.90
56869;DHT22;42754;0.000;0.000;2022-12-18T15:33:30;-0.50;99.90
56869;DHT22;42754;0.000;0.000;2022-12-18T15:35:58;-0.50;99.90
56869;DHT22;42754;0.000;0.000;2022-12-18T15:38:24;-0.50;99.90
56869;DHT22;42754;0.000;0.000;2022-12-18T15:40:50;-0.50;99.90
56869;DHT22;42754;0.000;0.000;2022-12-18T15:43:21;-0.50;99.90
56869;DHT22;42754;0.000;0.000;2022-12-18T15:46:11;-0.50;99.90
56869;DHT22;42754;0.000;0.000;2022-12-18T15:48:53;-0.50;99.90
56869;DHT22;42754;0.000;0.000;2022-12-18T15:51:20;-0.50;99.90
56869;DHT22;42754;0.000;0.000;2022-12-18T15:53:47;-0.50;99.90
56869;DHT22;42754;0.000;0.000;2022-12-18T15:56:13;-0.50;99.90
56869;DHT22;42754;0.000;0.000;2022-12-18T15:58:58;-0.50;99.90
56869;DHT22;42754;0.000;0.000;2022-12-18T16:01:24;-0.50;99.90
56869;DHT22;42754;0.000;0.000;2022-12-18T16:03:50;-0.40;99.90
56869;DHT22;42754;0.000;0.000;2022-12-18T16:06:16;-0.40;99.90
56869;DHT22;42754;0.000;0.000;2022-12-18T16:08:41;-0.40;99.90
56869;DHT22;42754;0.000;0.000;2022-12-18T16:11:49;-0.30;99.90
56869;DHT22;42754;0.000;0.000;2022-12-18T16:14:18;-0.30;99.90
56869;DHT22;42754;0.000;0.000;2022-12-18T16:16:45;-0.30;99.90
56869;DHT22;42754;0.000;0.000;2022-12-18T16:19:10;-0.20;99.90
56869;DHT22;42754;0.000;0.000;2022-12-18T16:21:36;-0.20;99.90
56869;DHT22;42754;0.000;0.000;2022-12-18T16:24:02;-0.20;99.90
56869;DHT22;42754;0.000;0.000;2022-12-18T16:26:27;-0.30;99.90
56869;DHT22;42754;0.000;0.000;2022-12-18T16:28:53;-0.30;99.90
56869;DHT22;42754;0.000;0.000;2022-12-18T16:31:19;-0.30;99.90
56869;DHT22;42754;0.000;0.000;2022-12-18T16:33:44;-0.20;99.90
56869;DHT22;42754;0.000;0.000;2022-12-18T16:36:10;-0.20;99.90
56869;DHT22;42754;0.000;0.000;2022-12-18T16:38:35;-0.20;99.90
56869;DHT22;42754;0.000;0.000;2022-12-18T16:41:34;-0.20;99.90
56869;DHT22;42754;0.000;0.000;2022-12-18T16:43:59;-0.20;99.90
56869;DHT22;42754;0.000;0.000;2022-12-18T16:46:25;-0.20;99.90
56869;DHT22;42754;0.000;0.000;2022-12-18T16:48:51;-0.20;99.90
56869;DHT22;42754;0.000;0.000;2022-12-18T16:51:16;-0.20;99.90
56869;DHT22;42754;0.000;0.000;2022-12-18T16:53:42;-0.20;99.90
56869;DHT22;42754;0.000;0.000;2022-12-18T16:56:07;-0.20;99.90
56869;DHT22;42754;0.000;0.000;2022-12-18T16:58:33;-0.20;99.90
56869;DHT22;42754;0.000;0.000;2022-12-18T17:00:58;-0.20;99.90
56869;DHT22;42754;0.000;0.000;2022-12-18T17:03:24;-0.20;99.90
56869;DHT22;42754;0.000;0.000;2022-12-18T17:05:50;-0.20;99.90
56869;DHT22;42754;0.000;0.000;2022-12-18T17:08:15;-0.20;99.90
56869;DHT22;42754;0.000;0.000;2022-12-18T17:10:41;-0.20;99.90
56869;DHT22;42754;0.000;0.000;2022-12-18T17:13:06;-0.20;99.90
56869;DHT22;42754;0.000;0.000;2022-12-18T17:15:35;-0.20;99.90
56869;DHT22;42754;0.000;0.000;2022-12-18T17:18:01;-0.20;99.90
56869;DHT22;42754;0.000;0.000;2022-12-18T17:20:26;-0.20;99.90
56869;DHT22;42754;0.000;0.000;2022-12-18T17:22:52;-0.20;99.90
56869;DHT22;42754;0.000;0.000;2022-12-18T17:25:17;-0.20;99.90
56869;DHT22;42754;0.000;0.000;2022-12-18T17:27:45;-0.20;99.90
56869;DHT22;42754;0.000;0.000;2022-12-18T17:30:11;-0.20;99.90
56869;DHT22;42754;0.000;0.000;2022-12-18T17:32:36;-0.20;99.90
56869;DHT22;42754;0.000;0.000;2022-12-18T17:35:02;-0.20;99.90
56869;DHT22;42754;0.000;0.000;2022-12-18T17:37:29;-0.20;99.90
56869;DHT22;42754;0.000;0.000;2022-12-18T17:39:54;-0.20;99.90
56869;DHT22;42754;0.000;0.000;2022-12-18T17:42:21;-0.20;99.90
56869;DHT22;42754;0.000;0.000;2022-12-18T17:44:46;-0.20;99.90